Time;durP1;ratioP1;P1;durP2;ratioP2;P2;SDS_P1;SDS_P2;PMS_P1;PMS_P2;Temp;Humidity;BMP_temperature;BMP_pressure;BME280_temperature;BME280_humidity;BME280_pressure;Samples;Min_cycle;Max_cycle;Signal;HPM_P1;HPM_P2
2021/09/21 00:02:00;;;;;;;0.60;0.60;;;;;;;9.53;66.29;100916.68;113486;1193;109883;-86
2021/09/21 00:04:27;;;;;;;0.50;0.50;;;;;;;9.49;66.61;100917.26;113437;1194;141437;-84
2021/09/21 00:06:55;;;;;;;0.50;0.50;;;;;;;9.46;66.85;100918.36;113590;1193;94866;-84
2021/09/21 00:09:22;;;;;;;0.50;0.50;;;;;;;9.47;66.78;100917.45;114970;1193;142317;-85
2021/09/21 00:11:51;;;;;;;0.60;0.60;;;;;;;9.50;66.98;100920.09;115005;1193;92838;-86
2021/09/21 00:14:18;;;;;;;0.50;0.50;;;;;;;9.49;67.03;100919.73;115011;1193;93053;-87
2021/09/21 00:16:45;;;;;;;0.60;0.60;;;;;;;9.49;67.31;100920.80;114245;1193;139811;-85
2021/09/21 00:19:12;;;;;;;0.50;0.50;;;;;;;9.50;67.40;100921.15;113533;1193;94838;-86
2021/09/21 00:21:38;;;;;;;0.60;0.60;;;;;;;9.50;67.48;100922.21;113381;1193;137924;-86
2021/09/21 00:24:05;;;;;;;0.60;0.60;;;;;;;9.56;67.37;100924.79;113562;1193;95273;-85
2021/09/21 00:26:32;;;;;;;0.50;0.50;;;;;;;9.59;67.31;100922.27;113626;1193;95420;-86
2021/09/21 00:29:00;;;;;;;0.50;0.40;;;;;;;9.62;67.42;100922.94;113392;1193;137599;-86
2021/09/21 00:31:37;;;;;;;0.50;0.50;;;;;;;9.63;67.53;100922.76;113520;1193;108981;-85
2021/09/21 00:34:07;;;;;;;0.50;0.50;;;;;;;9.58;67.53;100922.80;113358;1193;140081;-87
2021/09/21 00:36:36;;;;;;;0.60;0.60;;;;;;;9.62;67.42;100925.59;113551;1193;94824;-86
2021/09/21 00:39:05;;;;;;;0.50;0.40;;;;;;;9.71;67.20;100925.81;113451;1193;94842;-87
2021/09/21 00:41:33;;;;;;;0.50;0.50;;;;;;;9.80;66.90;100928.53;113473;1193;138207;-86
2021/09/21 00:43:59;;;;;;;0.50;0.50;;;;;;;9.73;66.96;100929.69;114866;1193;110454;-87
2021/09/21 00:46:26;;;;;;;0.50;0.50;;;;;;;9.62;67.29;100928.61;114890;1193;138485;-87
2021/09/21 00:48:52;;;;;;;0.50;0.50;;;;;;;9.64;67.25;100928.59;113979;1193;95321;-88
2021/09/21 00:51:21;;;;;;;0.50;0.50;;;;;;;9.77;66.94;100928.76;113462;1193;139194;-85
2021/09/21 00:53:48;;;;;;;0.50;0.40;;;;;;;9.84;66.65;100930.08;113452;1193;94899;-84
2021/09/21 00:56:14;;;;;;;0.50;0.50;;;;;;;9.83;66.54;100931.67;113526;1193;94924;-86
2021/09/21 00:58:41;;;;;;;0.50;0.40;;;;;;;9.79;66.67;100930.84;113418;1193;137879;-86
2021/09/21 01:01:08;;;;;;;0.50;0.40;;;;;;;9.81;66.65;100932.94;113575;1193;94822;-86
2021/09/21 01:03:35;;;;;;;0.50;0.50;;;;;;;9.80;66.67;100931.73;113276;1193;139013;-88
2021/09/21 01:06:01;;;;;;;0.50;0.50;;;;;;;9.72;66.57;100930.23;113482;1193;94770;-85
2021/09/21 01:08:29;;;;;;;0.50;0.50;;;;;;;9.70;66.74;100929.03;113466;1193;94861;-86
2021/09/21 01:10:56;;;;;;;0.40;0.40;;;;;;;9.80;66.50;100930.83;114331;1193;139924;-88
2021/09/21 01:13:23;;;;;;;0.60;0.60;;;;;;;9.83;66.31;100930.25;113585;1193;94786;-89
2021/09/21 01:15:49;;;;;;;0.50;0.50;;;;;;;9.74;66.46;100933.95;113543;1193;139888;-88
2021/09/21 01:18:16;;;;;;;0.50;0.50;;;;;;;9.72;66.58;100930.95;113759;1193;94837;-87
2021/09/21 01:20:42;;;;;;;0.50;0.50;;;;;;;9.74;66.48;100931.09;113624;1193;94765;-86
2021/09/21 01:23:09;;;;;;;0.50;0.50;;;;;;;9.79;66.30;100930.50;113534;1193;137852;-85
2021/09/21 01:25:36;;;;;;;0.50;0.50;;;;;;;9.72;66.33;100933.79;113543;1193;94849;-87
2021/09/21 01:28:02;;;;;;;0.60;0.60;;;;;;;9.70;66.52;100932.22;113432;1193;137876;-86
2021/09/21 01:30:29;;;;;;;0.50;0.50;;;;;;;9.71;66.47;100930.43;113592;1193;94842;-87
2021/09/21 01:32:55;;;;;;;0.50;0.50;;;;;;;9.69;66.46;100932.05;113549;1193;94784;-88
2021/09/21 01:35:22;;;;;;;0.40;0.40;;;;;;;9.70;66.63;100929.56;113427;1194;138118;-86
2021/09/21 01:37:51;;;;;;;0.60;0.60;;;;;;;9.61;66.75;100925.62;113529;1193;94780;-87
2021/09/21 01:40:18;;;;;;;0.50;0.50;;;;;;;9.51;66.86;100927.15;113345;1193;137803;-86
2021/09/21 01:42:47;;;;;;;0.50;0.40;;;;;;;9.50;67.09;100928.05;113545;1193;95295;-86
2021/09/21 01:45:16;;;;;;;0.50;0.40;;;;;;;9.54;66.98;100931.02;113422;1193;137346;-86
2021/09/21 01:47:44;;;;;;;0.50;0.50;;;;;;;9.53;66.96;100928.19;113572;1193;108873;-85
2021/09/21 01:52:57;;;;;;;0.60;0.60;;;;;;;9.40;67.36;100930.67;113433;1193;141304;-86
2021/09/21 02:00:58;;;;;;;0.60;0.60;;;;;;;9.43;67.27;100929.04;113590;1193;109897;-86
2021/09/21 02:03:26;;;;;;;0.50;0.50;;;;;;;9.42;67.16;100930.98;113385;1193;139901;-86
2021/09/21 02:05:52;;;;;;;0.50;0.50;;;;;;;9.47;67.15;100932.00;113624;1193;94864;-85
2021/09/21 02:08:19;;;;;;;0.50;0.50;;;;;;;9.48;67.13;100929.15;113460;1193;94906;-84
2021/09/21 02:10:45;;;;;;;0.60;0.60;;;;;;;9.34;67.29;100930.75;113433;1193;139661;-85
2021/09/21 02:13:12;;;;;;;0.60;0.60;;;;;;;9.28;67.60;100933.30;113601;1193;94788;-86
2021/09/21 02:15:39;;;;;;;0.50;0.50;;;;;;;9.35;67.40;100934.09;113468;1193;139688;-85
2021/09/21 02:18:07;;;;;;;0.50;0.50;;;;;;;9.36;67.32;100931.45;113584;1193;95298;-87
2021/09/21 02:20:33;;;;;;;0.50;0.50;;;;;;;9.34;67.29;100934.65;113616;1193;94783;-84
2021/09/21 02:23:00;;;;;;;0.50;0.50;;;;;;;9.28;67.51;100934.73;113438;1193;138205;-81
2021/09/21 02:25:27;;;;;;;0.50;0.50;;;;;;;9.28;67.41;100939.33;113560;1193;94890;-85
2021/09/21 02:27:53;;;;;;;0.60;0.60;;;;;;;9.32;67.22;100939.27;113441;1193;138723;-86
2021/09/21 02:30:20;;;;;;;0.50;0.50;;;;;;;9.29;67.33;100939.66;113610;1193;95305;-84
2021/09/21 02:32:49;;;;;;;0.50;0.50;;;;;;;9.19;67.56;100939.44;113542;1193;109770;-85
2021/09/21 02:35:17;;;;;;;0.60;0.60;;;;;;;9.21;67.48;100944.38;113386;1195;140786;-86
2021/09/21 02:37:44;;;;;;;0.60;0.60;;;;;;;9.24;67.42;100954.79;113957;1193;94793;-85
2021/09/21 02:40:11;;;;;;;0.50;0.50;;;;;;;9.30;67.28;100965.00;113384;1193;140160;-86
2021/09/21 02:42:39;;;;;;;0.60;0.60;;;;;;;9.30;67.13;100959.67;113514;1195;94771;-86
2021/09/21 02:45:06;;;;;;;0.70;0.70;;;;;;;9.38;66.92;100958.34;113468;1193;94799;-87
2021/09/21 02:47:32;;;;;;;0.60;0.60;;;;;;;9.47;66.59;100956.80;113511;1193;139681;-86
2021/09/21 02:50:00;;;;;;;0.50;0.50;;;;;;;9.46;66.43;100956.29;113583;1193;94851;-88
2021/09/21 02:52:26;;;;;;;0.60;0.60;;;;;;;9.44;66.31;100953.65;113466;1193;137841;-86
2021/09/21 02:54:53;;;;;;;0.60;0.60;;;;;;;9.37;66.32;100954.46;113435;1193;95344;-87
2021/09/21 02:57:20;;;;;;;0.50;0.50;;;;;;;9.31;66.53;100956.13;113435;1193;138891;-86
2021/09/21 02:59:46;;;;;;;0.50;0.50;;;;;;;9.39;66.47;100954.97;113574;1193;94761;-85
2021/09/21 03:02:13;;;;;;;0.60;0.60;;;;;;;9.40;66.27;100957.97;113559;1193;95440;-85
2021/09/21 03:04:48;;;;;;;0.50;0.50;;;;;;;9.28;66.54;100950.32;113380;1193;139215;-84
2021/09/21 03:07:18;;;;;;;0.50;0.50;;;;;;;9.19;66.73;100948.47;113562;1193;110038;-87
2021/09/21 03:17:42;;;;;;;0.50;0.50;;;;;;;9.04;66.89;100952.36;113416;1193;138133;-87
2021/09/21 03:20:09;;;;;;;0.50;0.50;;;;;;;9.05;67.05;100949.69;113460;1193;94804;-87
2021/09/21 03:22:36;;;;;;;0.50;0.50;;;;;;;9.08;66.95;100947.88;113428;1193;138399;-88
2021/09/21 03:25:04;;;;;;;0.60;0.60;;;;;;;9.10;66.75;100949.81;113562;1193;94757;-86
2021/09/21 03:27:30;;;;;;;0.60;0.60;;;;;;;9.04;66.94;100950.05;113381;1193;139577;-84
2021/09/21 03:29:57;;;;;;;0.50;0.50;;;;;;;9.08;66.99;100949.48;113526;1193;94948;-84
2021/09/21 03:32:25;;;;;;;0.60;0.60;;;;;;;9.10;66.77;100952.29;113561;1193;95306;-84
2021/09/21 03:34:52;;;;;;;0.60;0.60;;;;;;;9.03;67.01;100949.35;113462;1193;136909;-87
2021/09/21 03:37:18;;;;;;;0.60;0.60;;;;;;;8.98;67.16;100952.08;113538;1193;94802;-84
2021/09/21 03:39:45;;;;;;;0.60;0.60;;;;;;;9.01;67.06;100954.35;113424;1193;138425;-85
2021/09/21 03:42:12;;;;;;;0.60;0.60;;;;;;;9.04;67.08;100956.96;113486;1195;94805;-87
2021/09/21 03:44:39;;;;;;;0.60;0.60;;;;;;;9.07;66.84;100959.59;113607;1193;94826;-86
2021/09/21 03:47:06;;;;;;;0.60;0.60;;;;;;;9.05;66.85;100964.40;113416;1193;139598;-87
2021/09/21 03:49:32;;;;;;;0.50;0.50;;;;;;;9.06;66.81;100964.21;113507;1193;94817;-85
2021/09/21 03:51:59;;;;;;;0.60;0.60;;;;;;;9.07;66.74;100963.32;113373;1193;137570;-85
2021/09/21 03:54:25;;;;;;;0.60;0.60;;;;;;;9.07;66.71;100966.33;113592;1193;96508;-88
2021/09/21 03:56:52;;;;;;;0.60;0.60;;;;;;;9.02;66.70;100973.11;113504;1193;94934;-87
2021/09/21 03:59:19;;;;;;;0.60;0.60;;;;;;;8.94;67.04;100974.27;113422;1193;138195;-86
2021/09/21 04:01:45;;;;;;;0.60;0.60;;;;;;;8.91;67.03;100975.88;113468;1193;94935;-86
2021/09/21 04:04:12;;;;;;;0.60;0.60;;;;;;;8.93;66.94;100976.39;113406;1193;139021;-84
2021/09/21 04:06:40;;;;;;;0.60;0.60;;;;;;;8.80;67.17;100980.59;113520;1193;94800;-86
2021/09/21 04:09:06;;;;;;;0.60;0.60;;;;;;;8.81;67.21;100983.41;113458;1193;95021;-89
2021/09/21 04:11:33;;;;;;;0.60;0.60;;;;;;;8.85;67.15;100988.51;113439;1195;141852;-86
2021/09/21 04:14:00;;;;;;;0.50;0.50;;;;;;;8.85;67.20;100991.70;113485;1193;109983;-86
2021/09/21 04:16:29;;;;;;;0.60;0.60;;;;;;;8.78;67.15;100995.11;113357;1193;138245;-87
2021/09/21 04:18:59;;;;;;;0.60;0.60;;;;;;;8.73;67.41;100995.52;113509;1193;94890;-85
2021/09/21 04:21:26;;;;;;;0.60;0.60;;;;;;;8.76;67.39;101000.45;113520;1193;139707;-86
2021/09/21 04:23:53;;;;;;;0.50;0.50;;;;;;;8.66;67.37;101003.73;113476;1193;94919;-85
2021/09/21 04:26:19;;;;;;;0.60;0.60;;;;;;;8.65;67.58;101006.21;113563;1193;95310;-86
2021/09/21 04:28:46;;;;;;;0.70;0.70;;;;;;;8.67;67.63;101010.64;113365;1193;141130;-87
2021/09/21 04:31:17;;;;;;;0.50;0.50;;;;;;;8.70;67.50;101017.15;113633;1193;94854;-86
2021/09/21 04:33:44;;;;;;;0.60;0.60;;;;;;;8.79;67.09;101016.71;113388;1193;139580;-85
2021/09/21 04:36:11;;;;;;;0.60;0.60;;;;;;;8.86;66.95;101021.44;113494;1193;94838;-84
2021/09/21 04:38:38;;;;;;;0.50;0.50;;;;;;;8.90;66.69;101026.19;113748;1193;95329;-87
2021/09/21 04:41:06;;;;;;;0.60;0.60;;;;;;;8.89;66.61;101025.66;113463;1193;139920;-84
2021/09/21 04:43:35;;;;;;;0.60;0.60;;;;;;;8.87;66.62;101025.67;113497;1193;94804;-86
2021/09/21 04:46:04;;;;;;;0.60;0.60;;;;;;;8.86;66.62;101028.14;113375;1193;139599;-89
2021/09/21 04:48:30;;;;;;;0.60;0.60;;;;;;;8.86;66.52;101026.22;113444;1193;94822;-83
2021/09/21 04:50:57;;;;;;;0.60;0.60;;;;;;;8.88;66.58;101029.55;113433;1193;94943;-85
2021/09/21 04:53:24;;;;;;;0.60;0.60;;;;;;;8.90;66.56;101030.25;113374;1193;138121;-88
2021/09/21 04:55:50;;;;;;;0.50;0.50;;;;;;;8.88;66.51;101030.80;113535;1193;95321;-85
2021/09/21 04:58:17;;;;;;;0.60;0.60;;;;;;;8.74;66.72;101032.70;113432;1193;137027;-85
2021/09/21 05:00:44;;;;;;;0.60;0.60;;;;;;;8.68;67.03;101031.68;113525;1193;94997;-85
2021/09/21 05:03:10;;;;;;;0.60;0.60;;;;;;;8.74;67.09;101038.00;113572;1193;96965;-84
2021/09/21 05:05:37;;;;;;;0.60;0.60;;;;;;;8.73;67.20;101035.17;113336;1193;139276;-84
2021/09/21 05:08:04;;;;;;;0.60;0.60;;;;;;;8.70;67.26;101039.45;113434;1193;94921;-84
2021/09/21 05:10:33;;;;;;;0.60;0.60;;;;;;;8.71;67.32;101045.29;113349;1193;138729;-83
2021/09/21 05:12:59;;;;;;;0.60;0.60;;;;;;;8.80;67.30;101048.23;113520;1193;94839;-82
2021/09/21 05:15:26;;;;;;;0.50;0.50;;;;;;;8.83;67.14;101052.27;113226;1193;139199;-83
2021/09/21 05:17:54;;;;;;;0.60;0.60;;;;;;;8.82;67.36;101054.58;113366;1193;94780;-86
2021/09/21 05:20:20;;;;;;;0.50;0.50;;;;;;;8.90;67.31;101055.58;113458;1193;94877;-85
2021/09/21 05:22:50;;;;;;;0.60;0.60;;;;;;;8.90;67.29;101056.81;113430;1193;138379;-86
2021/09/21 05:25:18;;;;;;;0.50;0.50;;;;;;;8.94;67.23;101060.85;113498;1193;108938;-85
2021/09/21 05:27:44;;;;;;;0.60;0.60;;;;;;;8.98;67.27;101061.18;113470;1193;137854;-84
2021/09/21 05:30:12;;;;;;;0.60;0.60;;;;;;;9.01;67.33;101064.87;113443;1193;95308;-86
2021/09/21 05:32:39;;;;;;;0.50;0.50;;;;;;;8.95;67.39;101057.11;113424;1193;95323;-85
2021/09/21 05:35:06;;;;;;;0.60;0.60;;;;;;;8.90;67.76;101057.88;113377;1193;137882;-84
2021/09/21 05:37:33;;;;;;;0.50;0.50;;;;;;;8.90;67.89;101055.95;113394;1195;94909;-86
2021/09/21 05:40:00;;;;;;;0.60;0.60;;;;;;;8.95;67.99;101056.78;113306;1193;142483;-84
2021/09/21 05:42:27;;;;;;;0.60;0.60;;;;;;;9.02;68.02;101058.65;113549;1193;94881;-84
2021/09/21 05:44:53;;;;;;;0.60;0.60;;;;;;;9.12;67.88;101057.17;113609;1193;94779;-86
2021/09/21 05:47:20;;;;;;;0.60;0.60;;;;;;;9.21;67.63;101060.25;113462;1193;138301;-85
2021/09/21 05:49:46;;;;;;;0.60;0.60;;;;;;;9.23;67.58;101059.00;113465;1193;109954;-85
2021/09/21 05:52:13;;;;;;;0.60;0.60;;;;;;;9.18;67.68;101056.20;113449;1193;138474;-86
2021/09/21 05:54:40;;;;;;;0.60;0.60;;;;;;;9.18;68.00;101063.47;113497;1193;95255;-83
2021/09/21 05:57:06;;;;;;;0.70;0.70;;;;;;;9.27;68.08;101060.19;113547;1193;95347;-82
2021/09/21 05:59:33;;;;;;;0.60;0.60;;;;;;;9.26;67.77;101057.19;113463;1193;139256;-87
2021/09/21 06:01:59;;;;;;;0.50;0.50;;;;;;;9.31;67.88;101058.73;113449;1193;110065;-82
2021/09/21 06:04:26;;;;;;;0.50;0.50;;;;;;;9.34;67.88;101059.92;113201;1193;138454;-82
2021/09/21 06:06:53;;;;;;;0.50;0.50;;;;;;;9.35;67.88;101059.93;113343;1193;94918;-84
2021/09/21 06:09:20;;;;;;;0.50;0.50;;;;;;;9.42;68.07;101055.06;113489;1193;94704;-84
2021/09/21 06:11:46;;;;;;;0.60;0.60;;;;;;;9.51;67.89;101056.73;113412;1193;138903;-84
2021/09/21 06:14:13;;;;;;;0.50;0.50;;;;;;;9.62;67.91;101056.61;113569;1193;94882;-83
2021/09/21 06:16:39;;;;;;;0.50;0.50;;;;;;;9.66;67.59;101059.40;113423;1193;138605;-87
2021/09/21 06:19:06;;;;;;;0.50;0.50;;;;;;;9.66;67.54;101059.94;113536;1193;94764;-84
2021/09/21 06:21:32;;;;;;;0.50;0.50;;;;;;;9.67;67.75;101063.98;113367;1193;138251;-84
2021/09/21 06:23:59;;;;;;;0.50;0.50;;;;;;;9.74;67.78;101063.74;113509;1193;94786;-85
2021/09/21 06:26:26;;;;;;;0.50;0.50;;;;;;;9.82;67.55;101065.25;113677;1193;94791;-86
2021/09/21 06:28:52;;;;;;;0.50;0.50;;;;;;;9.84;67.51;101063.97;113442;1193;139234;-85
2021/09/21 06:31:19;;;;;;;0.50;0.50;;;;;;;9.82;67.78;101070.73;113599;1193;94796;-84
2021/09/21 06:33:45;;;;;;;0.50;0.50;;;;;;;9.88;67.57;101069.42;113384;1193;139239;-83
2021/09/21 06:36:13;;;;;;;0.50;0.50;;;;;;;10.06;67.34;101069.02;113575;1193;94828;-82
2021/09/21 06:38:40;;;;;;;0.50;0.50;;;;;;;10.14;67.17;101064.99;113486;1193;95321;-84
2021/09/21 06:41:06;;;;;;;0.50;0.50;;;;;;;10.17;67.09;101064.23;113560;1193;137995;-86
2021/09/21 06:43:33;;;;;;;0.60;0.60;;;;;;;10.18;67.06;101068.49;113479;1193;95290;-85
2021/09/21 06:46:00;;;;;;;0.50;0.50;;;;;;;10.27;66.87;101076.89;113458;1193;139783;-84
2021/09/21 06:48:27;;;;;;;0.50;0.50;;;;;;;10.31;66.55;101081.80;113455;1193;94797;-85
2021/09/21 06:50:54;;;;;;;0.50;0.50;;;;;;;10.28;66.55;101089.30;113524;1193;94795;-84
2021/09/21 06:53:20;;;;;;;0.50;0.50;;;;;;;10.25;66.50;101094.48;113402;1193;139738;-87
2021/09/21 06:55:47;;;;;;;0.50;0.50;;;;;;;10.29;66.59;101096.05;113625;1193;95032;-85
2021/09/21 06:58:14;;;;;;;0.50;0.50;;;;;;;10.45;66.27;101092.64;113378;1193;138176;-84
2021/09/21 07:00:42;;;;;;;0.50;0.40;;;;;;;10.46;66.16;101104.00;113575;1193;94890;-83
2021/09/21 07:03:09;;;;;;;0.50;0.50;;;;;;;10.42;66.39;101109.90;113498;1193;95307;-85
2021/09/21 07:05:37;;;;;;;0.60;0.60;;;;;;;10.44;66.21;101111.12;113450;1193;139800;-84
2021/09/21 07:08:05;;;;;;;0.50;0.50;;;;;;;10.56;66.13;101109.70;113468;1193;94801;-84
2021/09/21 07:10:32;;;;;;;0.50;0.50;;;;;;;10.66;65.68;101111.86;113394;1193;139071;-82
2021/09/21 07:12:58;;;;;;;0.50;0.50;;;;;;;10.72;65.59;101108.76;113499;1193;95371;-84
2021/09/21 07:15:25;;;;;;;0.50;0.50;;;;;;;10.85;65.49;101110.86;113465;1193;94758;-84
2021/09/21 07:17:53;;;;;;;0.50;0.40;;;;;;;10.95;64.67;101112.47;113379;1193;139910;-81
2021/09/21 07:20:21;;;;;;;0.40;0.40;;;;;;;10.97;63.95;101118.82;113706;1193;94791;-84
2021/09/21 07:22:48;;;;;;;0.50;0.40;;;;;;;11.01;63.91;101116.29;113429;1193;137669;-84
2021/09/21 07:25:17;;;;;;;0.50;0.50;;;;;;;11.01;63.93;101120.02;113593;1193;94866;-84
2021/09/21 07:27:45;;;;;;;0.50;0.50;;;;;;;11.03;63.73;101118.20;113469;1193;139666;-84
2021/09/21 07:30:12;;;;;;;0.50;0.50;;;;;;;11.08;63.38;101118.48;113546;1193;109114;-84
2021/09/21 07:32:39;;;;;;;0.50;0.50;;;;;;;11.11;63.67;101116.66;113641;1193;94855;-85
2021/09/21 07:35:07;;;;;;;0.50;0.40;;;;;;;11.22;63.56;101111.30;113506;1193;137684;-85
2021/09/21 07:37:35;;;;;;;0.60;0.60;;;;;;;11.22;62.78;101107.20;113609;1193;94846;-84
2021/09/21 07:40:04;;;;;;;0.50;0.50;;;;;;;11.15;62.68;101114.09;113539;1193;138529;-84
2021/09/21 07:42:31;;;;;;;0.50;0.50;;;;;;;11.13;62.55;101119.81;113502;1193;94882;-84
2021/09/21 07:45:00;;;;;;;0.60;0.60;;;;;;;11.16;62.74;101128.83;113567;1193;94828;-84
2021/09/21 07:47:27;;;;;;;0.50;0.50;;;;;;;11.22;62.66;101128.00;113431;1193;137516;-86
2021/09/21 07:49:54;;;;;;;0.50;0.50;;;;;;;11.33;62.95;101126.58;113448;1193;110086;-85
2021/09/21 07:52:21;;;;;;;0.40;0.40;;;;;;;11.50;62.30;101129.99;113422;1193;138725;-84
2021/09/21 07:54:48;;;;;;;0.40;0.40;;;;;;;11.48;61.40;101135.73;113504;1193;94882;-83
2021/09/21 07:57:14;;;;;;;0.40;0.40;;;;;;;11.44;61.76;101141.68;113596;1193;95319;-85
2021/09/21 07:59:42;;;;;;;0.40;0.40;;;;;;;11.47;61.92;101146.23;113334;1193;139369;-84
2021/09/21 08:02:10;;;;;;;0.40;0.40;;;;;;;11.48;61.63;101148.00;113481;1193;95388;-86
2021/09/21 08:04:38;;;;;;;0.50;0.50;;;;;;;11.46;61.73;101152.66;113294;1193;138239;-85
2021/09/21 08:07:06;;;;;;;0.50;0.50;;;;;;;11.51;61.71;101150.61;113511;1193;94911;-85
2021/09/21 08:09:33;;;;;;;0.50;0.40;;;;;;;11.50;61.49;101148.14;113399;1193;138354;-89
2021/09/21 08:12:00;;;;;;;0.40;0.40;;;;;;;11.50;61.55;101143.52;113381;1193;94852;-87
2021/09/21 08:14:26;;;;;;;0.50;0.50;;;;;;;11.55;61.59;101146.11;113341;1193;94803;-87
2021/09/21 08:16:53;;;;;;;0.50;0.50;;;;;;;11.59;61.87;101148.50;113298;1193;139278;-85
2021/09/21 08:19:20;;;;;;;0.40;0.40;;;;;;;11.72;61.30;101144.55;113409;1193;94787;-86
2021/09/21 08:21:47;;;;;;;0.40;0.40;;;;;;;11.76;60.74;101151.77;113409;1193;140560;-86
2021/09/21 08:24:14;;;;;;;0.40;0.40;;;;;;;11.73;60.75;101156.26;113471;1193;94937;-87
2021/09/21 08:26:40;;;;;;;0.50;0.40;;;;;;;11.74;60.86;101160.69;113420;1193;94794;-87
2021/09/21 08:29:07;;;;;;;0.50;0.50;;;;;;;11.74;60.79;101159.27;113313;1193;139945;-84
2021/09/21 08:55:35;;;;;;;0.40;0.30;;;;;;;13.10;57.54;101155.11;113068;1193;115755;-80
2021/09/21 08:58:02;;;;;;;0.40;0.30;;;;;;;13.32;57.49;101150.63;112680;1198;94794;-79
2021/09/21 09:00:31;;;;;;;0.40;0.30;;;;;;;13.64;57.31;101149.48;112523;1199;138269;-76
2021/09/21 09:03:07;;;;;;;0.40;0.30;;;;;;;13.92;56.36;101150.33;112750;1199;108998;-76
2021/09/21 09:05:42;;;;;;;0.40;0.30;;;;;;;13.96;56.03;101147.36;112787;1198;139121;-81
2021/09/21 09:08:09;;;;;;;0.40;0.30;;;;;;;14.08;55.62;101146.48;112895;1199;95024;-79
2021/09/21 09:10:35;;;;;;;0.40;0.30;;;;;;;14.10;54.99;101144.46;112907;1199;95297;-80
2021/09/21 09:13:03;;;;;;;0.40;0.30;;;;;;;14.12;54.79;101144.23;112687;1199;139853;-77
2021/09/21 09:15:29;;;;;;;0.40;0.30;;;;;;;14.08;54.06;101147.19;112731;1199;94282;-79
2021/09/21 09:17:59;;;;;;;0.40;0.30;;;;;;;14.16;54.85;101144.98;112706;1199;140236;-80
2021/09/21 09:20:40;;;;;;;0.40;0.30;;;;;;;14.18;54.17;101141.54;112932;1198;96494;-80
2021/09/21 09:23:08;;;;;;;0.40;0.30;;;;;;;14.11;54.30;101141.39;112844;1199;109234;-77
2021/09/21 09:25:44;;;;;;;0.40;0.30;;;;;;;14.14;54.68;101137.72;112750;1198;139851;-81
2021/09/21 09:28:19;;;;;;;0.40;0.30;;;;;;;14.13;54.75;101132.05;112838;1198;94836;-80
2021/09/21 09:30:47;;;;;;;0.40;0.30;;;;;;;14.12;54.72;101130.47;112933;1198;140238;-79
2021/09/21 09:33:15;;;;;;;0.40;0.30;;;;;;;14.17;54.64;101134.79;112949;1200;94810;-79
2021/09/21 09:35:46;;;;;;;0.40;0.30;;;;;;;14.14;54.91;101135.75;112787;1198;140954;-80
2021/09/21 09:38:18;;;;;;;0.40;0.30;;;;;;;14.20;54.84;101135.76;112947;1200;94800;-79
2021/09/21 09:40:46;;;;;;;0.40;0.30;;;;;;;14.20;55.19;101136.84;112846;1198;95528;-80
2021/09/21 09:43:14;;;;;;;0.40;0.30;;;;;;;14.22;55.65;101132.11;112739;1199;139571;-80
2021/09/21 09:45:45;;;;;;;0.40;0.30;;;;;;;14.22;55.05;101128.75;113034;1198;108275;-79
2021/09/21 09:48:14;;;;;;;0.40;0.30;;;;;;;14.14;55.05;101129.52;112819;1198;139139;-79
2021/09/21 09:50:42;;;;;;;0.40;0.30;;;;;;;14.09;55.26;101124.67;112891;1198;94400;-79
2021/09/21 09:53:11;;;;;;;0.40;0.30;;;;;;;14.12;55.30;101119.04;112930;1199;109383;-79
2021/09/21 09:55:44;;;;;;;0.40;0.30;;;;;;;14.21;55.43;101116.27;112751;1198;138378;-79
2021/09/21 09:58:16;;;;;;;0.40;0.30;;;;;;;14.25;55.09;101114.71;112884;1199;95310;-79
2021/09/21 10:00:43;;;;;;;0.40;0.30;;;;;;;14.31;55.19;101114.19;112588;1198;138168;-80
2021/09/21 10:03:09;;;;;;;0.40;0.20;;;;;;;14.42;55.12;101113.86;112827;1199;93377;-78
2021/09/21 10:05:39;;;;;;;0.40;0.30;;;;;;;14.55;55.26;101105.77;112761;1198;138708;-76
2021/09/21 10:08:07;;;;;;;0.40;0.30;;;;;;;14.67;54.73;101111.66;112841;1199;95322;-79
2021/09/21 10:10:36;;;;;;;0.40;0.20;;;;;;;14.79;54.86;101116.11;113224;1199;94822;-79
2021/09/21 10:13:06;;;;;;;0.40;0.30;;;;;;;14.75;54.46;101120.73;112730;1198;139015;-80
2021/09/21 10:15:33;;;;;;;0.40;0.20;;;;;;;14.84;54.79;101119.00;112884;1199;110818;-79
2021/09/21 10:18:01;;;;;;;0.40;0.20;;;;;;;14.94;54.56;101122.08;112784;1199;140215;-81
2021/09/21 10:20:34;;;;;;;0.40;0.20;;;;;;;14.94;54.85;101127.43;112945;1200;93987;-80
2021/09/21 10:23:02;;;;;;;0.40;0.30;;;;;;;14.91;55.04;101128.59;112968;1199;108601;-78
2021/09/21 10:25:32;;;;;;;0.40;0.20;;;;;;;14.84;54.83;101134.55;112877;1199;140244;-78
2021/09/21 10:28:15;;;;;;;0.40;0.20;;;;;;;14.75;54.40;101134.84;112959;1198;94794;-77
2021/09/21 10:30:53;;;;;;;0.40;0.30;;;;;;;14.69;54.22;101129.66;112844;1199;138735;-79
2021/09/21 10:33:23;;;;;;;0.40;0.30;;;;;;;14.71;54.08;101124.95;112899;1199;108848;-78
2021/09/21 10:35:50;;;;;;;0.40;0.30;;;;;;;14.94;53.85;101116.71;112765;1199;139081;-77
2021/09/21 10:38:19;;;;;;;0.40;0.30;;;;;;;15.01;53.47;101117.02;112888;1199;94889;-76
2021/09/21 10:41:06;;;;;;;0.40;0.20;;;;;;;15.21;53.35;101115.64;112957;1200;95582;-77
2021/09/21 10:43:34;;;;;;;0.40;0.20;;;;;;;15.47;52.32;101122.45;112739;1200;139296;-78
2021/09/21 10:46:22;;;;;;;0.40;0.20;;;;;;;15.33;52.23;101118.79;112791;1199;110486;-78
2021/09/21 10:48:49;;;;;;;0.40;0.20;;;;;;;15.22;52.06;101116.12;112873;1199;139221;-79
2021/09/21 10:51:16;;;;;;;0.40;0.20;;;;;;;15.26;52.44;101115.62;112871;1200;94900;-77
2021/09/21 10:53:43;;;;;;;0.40;0.20;;;;;;;15.34;52.76;101112.86;112859;1200;139482;-77
2021/09/21 10:56:13;;;;;;;0.40;0.20;;;;;;;15.44;52.95;101114.11;112888;1200;95293;-80
2021/09/21 10:58:54;;;;;;;0.40;0.20;;;;;;;15.49;52.82;101114.83;113088;1200;94976;-80
2021/09/21 11:01:21;;;;;;;0.40;0.20;;;;;;;15.54;52.84;101118.07;112944;1200;139062;-77
2021/09/21 11:03:48;;;;;;;0.40;0.20;;;;;;;15.58;52.63;101123.11;112858;1199;94542;-78
2021/09/21 11:06:16;;;;;;;0.40;0.30;;;;;;;15.57;52.60;101125.31;112242;1200;140408;-79
2021/09/21 11:08:51;;;;;;;0.40;0.30;;;;;;;15.58;52.70;101125.64;13763;1200;20097627;-81
2021/09/21 11:11:17;;;;;;;0.40;0.20;;;;;;;15.53;52.95;101122.74;112982;1199;139842;-77
2021/09/21 11:13:44;;;;;;;0.40;0.20;;;;;;;15.50;53.39;101122.34;112875;1199;94788;-80
2021/09/21 11:16:13;;;;;;;0.40;0.20;;;;;;;15.45;53.67;101126.95;112938;1198;95487;-77
2021/09/21 11:18:44;;;;;;;0.40;0.20;;;;;;;15.57;53.96;101127.79;112913;1198;138534;-79
2021/09/21 11:21:11;;;;;;;0.40;0.20;;;;;;;15.66;53.80;101126.05;113050;1200;95431;-78
2021/09/21 11:23:41;;;;;;;0.40;0.20;;;;;;;15.64;53.11;101119.88;112840;1199;139048;-76
2021/09/21 11:26:13;;;;;;;0.40;0.30;;;;;;;15.48;52.66;101124.52;112847;1199;109606;-79
2021/09/21 11:28:44;;;;;;;0.40;0.20;;;;;;;15.29;53.26;101125.39;113002;1200;110046;-80
2021/09/21 11:31:11;;;;;;;0.40;0.20;;;;;;;15.21;53.88;101128.52;112858;1199;139342;-80
2021/09/21 11:33:40;;;;;;;0.40;0.30;;;;;;;15.18;53.97;101123.95;112989;1199;95320;-77
2021/09/21 11:36:09;;;;;;;0.40;0.20;;;;;;;15.13;53.65;101129.48;112813;1199;139203;-80
2021/09/21 11:42:22;;;;;;;0.40;0.20;;;;;;;14.88;53.84;101124.05;112581;1200;137971;-81
2021/09/21 11:44:49;;;;;;;0.40;0.20;;;;;;;14.95;54.15;101121.70;112923;1199;94918;-76
2021/09/21 11:47:17;;;;;;;0.40;0.20;;;;;;;14.93;54.00;101122.80;112708;1199;140395;-76
2021/09/21 11:49:54;;;;;;;0.40;0.20;;;;;;;14.91;53.72;101123.77;112814;1200;109658;-78
2021/09/21 11:52:24;;;;;;;0.40;0.20;;;;;;;14.91;53.28;101125.40;112845;1200;94278;-79
2021/09/21 11:54:50;;;;;;;0.40;0.30;;;;;;;15.02;53.48;101124.85;112928;1200;139557;-79
2021/09/21 11:57:17;;;;;;;0.40;0.20;;;;;;;15.15;53.16;101130.33;112909;1200;94900;-77
2021/09/21 11:59:43;;;;;;;0.40;0.20;;;;;;;15.23;52.34;101129.33;112734;1199;138933;-75
2021/09/21 12:02:17;;;;;;;0.40;0.20;;;;;;;15.30;52.45;101126.41;112877;1200;95375;-77
2021/09/21 12:04:46;;;;;;;0.40;0.20;;;;;;;15.34;52.22;101126.80;112923;1199;94855;-79